createdAt,value
2023-01-19T06:01:32.359Z,67.32
2023-01-19T06:02:31.873Z,59.82
2023-01-19T06:03:31.513Z,59.44
2023-01-19T06:04:31.558Z,59.72
2023-01-19T06:05:31.625Z,59.80
2023-01-19T06:06:31.581Z,60.51
2023-01-19T06:07:32.117Z,60.67
2023-01-19T06:08:31.488Z,60.18
2023-01-19T06:09:31.454Z,60.83
2023-01-19T06:10:31.447Z,60.37
2023-01-19T06:11:31.498Z,60.03
2023-01-19T06:12:31.469Z,60.68
2023-01-19T06:13:31.456Z,60.98
2023-01-19T06:14:31.408Z,60.94
2023-01-19T06:15:31.413Z,60.08
2023-01-19T06:16:31.461Z,60.90
2023-01-19T06:17:31.331Z,60.08
2023-01-19T06:18:31.385Z,60.19
2023-01-19T06:19:31.349Z,59.30
2023-01-19T06:20:31.370Z,60.29
2023-01-19T06:21:31.342Z,61.10
2023-01-19T06:22:31.379Z,61.53
2023-01-19T06:23:31.313Z,61.62
2023-01-19T06:24:31.361Z,66.19
2023-01-19T06:25:31.298Z,61.06
2023-01-19T06:26:31.401Z,60.84
2023-01-19T06:27:31.557Z,59.91
2023-01-19T06:28:31.309Z,59.60
2023-01-19T06:29:31.407Z,59.43
2023-01-19T06:30:31.378Z,59.60
2023-01-19T06:31:31.484Z,59.99
2023-01-19T06:32:31.298Z,59.30
2023-01-19T06:33:31.390Z,59.08
2023-01-19T06:34:31.405Z,59.18
2023-01-19T06:35:31.307Z,59.06
2023-01-19T06:36:31.262Z,58.97
2023-01-19T06:37:31.274Z,59.64
2023-01-19T06:38:31.356Z,59.19
2023-01-19T06:39:31.227Z,59.46
2023-01-19T06:40:31.235Z,61.47
2023-01-19T06:41:31.159Z,60.41
2023-01-19T06:42:31.203Z,64.98
2023-01-19T06:43:31.342Z,62.00
2023-01-19T06:44:31.248Z,59.32
2023-01-19T06:45:31.280Z,60.24
2023-01-19T06:46:31.157Z,59.58
2023-01-19T06:47:31.191Z,59.25
2023-01-19T06:48:31.166Z,59.85
2023-01-19T06:49:31.205Z,60.34
2023-01-19T06:50:31.145Z,59.97
2023-01-19T06:51:31.277Z,60.70
2023-01-19T06:52:31.233Z,60.25
2023-01-19T06:53:31.122Z,60.58
2023-01-19T06:54:31.089Z,60.48
2023-01-19T06:55:31.266Z,62.12
2023-01-19T06:56:31.337Z,61.86
2023-01-19T06:57:31.151Z,61.28
2023-01-19T06:59:04.857Z,61.84
2023-01-19T06:59:31.844Z,61.30
2023-01-19T07:00:31.912Z,60.05
2023-01-19T07:01:31.195Z,60.16
2023-01-19T07:02:31.363Z,59.37
2023-01-19T07:03:31.193Z,60.33
2023-01-19T07:04:31.257Z,60.88
2023-01-19T07:05:31.153Z,59.96
2023-01-19T07:06:31.145Z,60.36
2023-01-19T07:07:31.193Z,60.25
2023-01-19T07:08:31.147Z,61.90
2023-01-19T07:09:31.165Z,62.36
2023-01-19T07:11:26.479Z,62.97
2023-01-19T07:12:03.816Z,63.31
2023-01-19T07:12:31.643Z,60.40
2023-01-19T07:13:31.452Z,60.34
2023-01-19T07:14:31.301Z,61.13
2023-01-19T07:15:31.102Z,61.59
2023-01-19T07:16:31.177Z,63.56
2023-01-19T07:17:31.159Z,59.73
2023-01-19T07:18:31.148Z,61.14
2023-01-19T07:19:31.141Z,60.01
2023-01-19T07:20:31.021Z,59.88
2023-01-19T07:21:31.055Z,59.84
2023-01-19T07:22:31.243Z,61.72
2023-01-19T07:23:31.073Z,62.79
2023-01-19T07:24:30.995Z,61.56
2023-01-19T07:25:30.988Z,60.74
2023-01-19T07:26:30.978Z,60.22
2023-01-19T07:27:31.098Z,61.97
2023-01-19T07:28:31.016Z,61.06
2023-01-19T07:29:30.888Z,61.78
2023-01-19T07:30:30.995Z,63.09
2023-01-19T07:31:31.025Z,64.83
2023-01-19T07:32:31.175Z,61.70
2023-01-19T07:33:31.246Z,60.00
2023-01-19T07:34:30.812Z,58.37
2023-01-19T07:35:30.855Z,61.61
2023-01-19T07:36:30.866Z,62.72
2023-01-19T07:37:30.831Z,63.47
2023-01-19T07:38:30.832Z,61.36
2023-01-19T07:39:30.783Z,60.38
2023-01-19T07:40:30.761Z,61.31
2023-01-19T07:41:30.873Z,59.81
2023-01-19T07:42:30.786Z,59.91
2023-01-19T07:43:30.923Z,60.69
2023-01-19T07:44:30.767Z,60.87
2023-01-19T07:45:30.829Z,62.34
2023-01-19T07:46:30.818Z,61.63
2023-01-19T07:47:30.887Z,60.63
2023-01-19T07:48:30.698Z,59.99
2023-01-19T07:49:30.959Z,59.51
2023-01-19T07:50:30.846Z,60.97
2023-01-19T07:51:30.832Z,60.24
2023-01-19T07:52:30.895Z,59.95
2023-01-19T07:53:31.689Z,61.35
2023-01-19T07:54:30.889Z,60.94
2023-01-19T07:55:30.872Z,61.30
2023-01-19T07:56:32.707Z,59.98
2023-01-19T07:57:30.752Z,60.20
2023-01-19T07:58:30.731Z,60.07
2023-01-19T08:00:03.307Z,58.77
2023-01-19T08:00:31.336Z,58.12
2023-01-19T08:01:31.158Z,60.65
2023-01-19T08:02:31.807Z,60.38
2023-01-19T08:03:30.764Z,59.11
2023-01-19T08:04:30.710Z,60.02
2023-01-19T08:05:30.837Z,58.89
2023-01-19T08:06:30.927Z,61.60
2023-01-19T08:07:30.761Z,59.47
2023-01-19T08:08:30.763Z,61.14
2023-01-19T08:09:30.727Z,60.66
2023-01-19T08:10:30.655Z,60.61
2023-01-19T08:11:30.725Z,59.83
2023-01-19T08:12:30.687Z,59.92
2023-01-19T08:13:30.575Z,58.74
2023-01-19T08:14:30.607Z,59.57
2023-01-19T08:15:30.763Z,60.54
2023-01-19T08:16:30.717Z,59.54
2023-01-19T08:17:30.704Z,59.96
2023-01-19T08:18:30.728Z,60.07
2023-01-19T08:19:30.638Z,60.09
2023-01-19T08:20:30.614Z,59.07
2023-01-19T08:21:32.029Z,61.61
2023-01-19T08:22:30.618Z,59.41
2023-01-19T08:23:30.585Z,59.99
2023-01-19T08:24:30.529Z,59.34
2023-01-19T08:25:30.521Z,58.81
2023-01-19T08:26:30.594Z,58.57
2023-01-19T08:27:38.645Z,59.78
2023-01-19T08:28:30.737Z,59.76
2023-01-19T08:29:30.529Z,59.58
2023-01-19T08:30:30.616Z,59.30
2023-01-19T08:31:30.655Z,60.18
2023-01-19T08:32:30.693Z,60.70
2023-01-19T08:33:30.675Z,60.27
2023-01-19T08:34:30.546Z,60.08
2023-01-19T08:35:30.545Z,59.22
2023-01-19T08:36:30.541Z,58.46
2023-01-19T08:37:31.276Z,59.73
2023-01-19T08:38:30.673Z,60.23
2023-01-19T08:39:30.532Z,61.70
2023-01-19T08:40:30.439Z,61.94
2023-01-19T08:41:30.489Z,59.32
2023-01-19T08:42:30.399Z,59.92
2023-01-19T08:43:30.374Z,58.66
2023-01-19T08:44:30.367Z,58.68
2023-01-19T08:45:30.396Z,59.46
2023-01-19T08:46:30.400Z,60.46
2023-01-19T08:47:30.458Z,59.85
2023-01-19T08:48:30.399Z,60.34
2023-01-19T08:49:30.390Z,59.82
2023-01-19T08:50:30.401Z,59.71
2023-01-19T08:51:30.381Z,59.85
2023-01-19T08:52:30.365Z,60.43
2023-01-19T08:53:30.330Z,59.75
2023-01-19T08:54:30.363Z,58.34
2023-01-19T08:55:30.467Z,58.65
2023-01-19T08:56:30.406Z,58.82
2023-01-19T08:57:30.447Z,58.84
2023-01-19T08:58:30.476Z,60.14
2023-01-19T08:59:30.284Z,59.99
2023-01-19T09:00:30.388Z,59.97
2023-01-19T09:01:30.636Z,58.79
2023-01-19T09:02:30.577Z,59.48
2023-01-19T09:03:30.535Z,59.49
2023-01-19T09:04:30.969Z,59.93
2023-01-19T09:05:30.468Z,60.45
2023-01-19T09:06:30.434Z,60.27
2023-01-19T09:07:32.445Z,60.51
2023-01-19T09:08:30.290Z,60.59
2023-01-19T09:09:30.391Z,61.47
2023-01-19T09:10:30.214Z,59.29
2023-01-19T09:11:30.831Z,59.32
2023-01-19T09:12:30.338Z,60.88
2023-01-19T09:13:30.371Z,60.23
2023-01-19T09:14:30.302Z,59.94
2023-01-19T09:15:30.251Z,58.59
2023-01-19T09:16:30.394Z,60.89
2023-01-19T09:18:03.924Z,60.14
2023-01-19T09:18:30.980Z,58.82
2023-01-19T09:19:33.740Z,59.64
2023-01-19T09:20:30.463Z,58.17
2023-01-19T09:21:30.369Z,58.74
2023-01-19T09:22:30.315Z,59.48
2023-01-19T09:23:30.478Z,60.72
2023-01-19T09:24:30.332Z,59.68
2023-01-19T09:25:30.218Z,59.96
2023-01-19T09:26:32.829Z,57.97
2023-01-19T09:27:30.255Z,60.00
2023-01-19T09:28:30.306Z,59.57
2023-01-19T09:29:30.218Z,59.90
2023-01-19T09:30:30.249Z,59.20
2023-01-19T09:31:30.291Z,60.10
2023-01-19T09:32:30.169Z,60.28
2023-01-19T09:33:30.163Z,60.31
2023-01-19T09:34:30.233Z,59.88
2023-01-19T09:35:30.196Z,58.27
2023-01-19T09:36:30.191Z,59.38
2023-01-19T09:37:30.155Z,59.91
2023-01-19T09:38:30.157Z,59.18
2023-01-19T09:39:30.269Z,59.89
2023-01-19T09:40:30.228Z,58.28
2023-01-19T09:41:30.144Z,59.64
2023-01-19T09:42:30.248Z,59.42
2023-01-19T09:43:30.220Z,59.19
2023-01-19T09:44:30.156Z,59.07
2023-01-19T09:45:30.293Z,59.85
2023-01-19T09:46:30.393Z,59.55
2023-01-19T09:47:30.030Z,58.68
2023-01-19T09:48:29.999Z,59.38
2023-01-19T09:49:29.943Z,60.73
2023-01-19T09:50:30.002Z,59.99
2023-01-19T09:51:29.889Z,58.57
2023-01-19T09:52:30.004Z,60.19
2023-01-19T09:53:29.980Z,61.85
2023-01-19T09:54:29.888Z,61.47
2023-01-19T09:55:30.129Z,60.00
2023-01-19T09:56:29.970Z,60.97
2023-01-19T09:57:30.004Z,60.19
2023-01-19T09:58:29.965Z,63.27
2023-01-19T09:59:30.924Z,61.00
2023-01-19T10:00:29.994Z,61.01
2023-01-19T10:01:30.984Z,59.44
2023-01-19T10:02:30.079Z,58.05
2023-01-19T10:03:30.133Z,59.00
2023-01-19T10:04:30.139Z,60.76
2023-01-19T10:05:30.081Z,60.69
2023-01-19T10:06:30.053Z,60.14
2023-01-19T10:07:30.038Z,59.53
2023-01-19T10:08:30.085Z,58.97
2023-01-19T10:09:30.040Z,60.51
2023-01-19T10:10:29.845Z,61.18
2023-01-19T10:11:38.118Z,59.80
2023-01-19T10:12:32.582Z,60.57
2023-01-19T10:13:30.492Z,59.74
2023-01-19T10:14:30.022Z,59.26
2023-01-19T10:15:29.897Z,62.66
2023-01-19T10:16:30.108Z,60.28
2023-01-19T10:17:29.985Z,60.91
2023-01-19T10:18:29.894Z,60.02
2023-01-19T10:19:29.816Z,59.14
2023-01-19T10:20:29.851Z,61.16
2023-01-19T10:21:29.767Z,60.44
2023-01-19T10:22:29.970Z,60.33
2023-01-19T10:23:29.896Z,59.63
2023-01-19T10:24:29.807Z,60.20
2023-01-19T10:25:30.187Z,59.80
2023-01-19T10:26:30.053Z,59.96
2023-01-19T10:27:29.980Z,61.43
2023-01-19T10:28:30.028Z,59.07
2023-01-19T10:29:29.982Z,59.90
2023-01-19T10:30:29.961Z,61.69
2023-01-19T10:31:29.984Z,60.85
2023-01-19T10:32:29.935Z,60.18
2023-01-19T10:33:30.011Z,61.11
2023-01-19T10:34:29.965Z,60.90
2023-01-19T10:35:29.978Z,58.25
2023-01-19T10:36:29.761Z,60.01
2023-01-19T10:37:29.987Z,58.73
2023-01-19T10:38:29.822Z,59.09
2023-01-19T10:39:29.996Z,60.13
2023-01-19T10:40:29.766Z,61.41
2023-01-19T10:41:29.996Z,60.04
2023-01-19T10:42:29.707Z,60.99
2023-01-19T10:43:29.828Z,59.83
2023-01-19T10:44:29.760Z,61.48
2023-01-19T10:45:29.790Z,63.39
2023-01-19T10:46:29.744Z,65.62
2023-01-19T10:47:29.804Z,63.10
2023-01-19T10:48:29.708Z,62.79
2023-01-19T10:49:29.756Z,62.31
2023-01-19T10:50:29.980Z,65.65
2023-01-19T10:52:03.204Z,67.08
2023-01-19T10:52:30.967Z,67.61
2023-01-19T10:53:30.049Z,65.53
2023-01-19T10:54:29.830Z,70.10
2023-01-19T10:55:29.703Z,67.17
2023-01-19T10:56:29.563Z,66.59
2023-01-19T10:57:29.812Z,65.66
2023-01-19T10:58:29.783Z,66.24
2023-01-19T10:59:29.741Z,64.05
2023-01-19T11:00:29.974Z,62.60
2023-01-19T11:01:29.741Z,61.30
2023-01-19T11:02:29.828Z,62.10
2023-01-19T11:03:29.558Z,60.24
2023-01-19T11:04:29.547Z,61.23
2023-01-19T11:05:29.644Z,62.82
2023-01-19T11:06:29.490Z,61.04
2023-01-19T11:07:29.501Z,62.35
2023-01-19T11:08:29.685Z,63.18
2023-01-19T11:09:29.498Z,62.10
2023-01-19T11:10:29.400Z,62.88
2023-01-19T11:11:29.549Z,61.73
2023-01-19T11:12:30.051Z,60.48
2023-01-19T11:13:29.511Z,61.69
2023-01-19T11:14:29.743Z,62.78
2023-01-19T11:15:30.221Z,60.41
2023-01-19T11:16:29.812Z,60.74
2023-01-19T11:17:29.775Z,61.30
2023-01-19T11:18:29.610Z,61.08
2023-01-19T11:19:29.605Z,61.27
2023-01-19T11:20:29.673Z,60.66
2023-01-19T11:21:29.799Z,62.01
2023-01-19T11:22:29.576Z,61.53
2023-01-19T11:23:29.627Z,61.23
2023-01-19T11:24:29.397Z,62.28
2023-01-19T11:26:03.079Z,61.23
2023-01-19T11:26:29.940Z,62.12
2023-01-19T11:27:31.357Z,62.75
2023-01-19T11:28:29.460Z,59.52
2023-01-19T11:29:29.773Z,61.31
2023-01-19T11:30:29.543Z,60.80
2023-01-19T11:31:29.666Z,61.29
2023-01-19T11:32:29.532Z,60.57
2023-01-19T11:33:29.501Z,62.24
2023-01-19T11:34:29.564Z,60.18
2023-01-19T11:35:29.372Z,60.72
2023-01-19T11:36:29.528Z,61.88
2023-01-19T11:37:29.679Z,60.03
2023-01-19T11:39:03.100Z,59.25
2023-01-19T11:39:30.607Z,59.25
2023-01-19T11:40:29.766Z,59.98
2023-01-19T11:41:29.458Z,60.78
2023-01-19T11:42:29.504Z,61.34
2023-01-19T11:43:39.724Z,62.53
2023-01-19T11:44:31.827Z,60.94
2023-01-19T11:45:29.365Z,59.94
2023-01-19T11:46:29.508Z,60.45
2023-01-19T11:47:29.489Z,61.81
2023-01-19T11:48:29.408Z,59.08
2023-01-19T11:49:29.326Z,59.10
2023-01-19T11:50:29.388Z,60.23
2023-01-19T11:51:29.430Z,62.14
2023-01-19T11:52:29.272Z,61.86
2023-01-19T11:53:29.380Z,61.31
2023-01-19T11:54:29.280Z,59.48
2023-01-19T11:55:29.236Z,60.38
2023-01-19T11:56:29.256Z,61.27
2023-01-19T11:57:29.280Z,60.36
2023-01-19T11:58:29.135Z,59.70
2023-01-19T11:59:29.268Z,60.94
2023-01-19T12:00:29.215Z,59.55
2023-01-19T12:01:29.320Z,60.22
2023-01-19T12:02:29.262Z,61.44
2023-01-19T12:03:29.232Z,60.45
2023-01-19T12:04:29.270Z,62.04
2023-01-19T12:05:29.147Z,61.42
2023-01-19T12:06:29.216Z,61.26
2023-01-19T12:07:29.374Z,60.53
2023-01-19T12:08:29.130Z,59.74
2023-01-19T12:09:29.127Z,61.11
2023-01-19T12:10:29.156Z,61.52
2023-01-19T12:11:29.123Z,60.72
2023-01-19T12:12:29.179Z,60.54
2023-01-19T12:13:29.350Z,60.66
2023-01-19T12:14:29.581Z,61.63
2023-01-19T12:15:29.388Z,60.53
2023-01-19T12:16:29.249Z,59.87
2023-01-19T12:17:30.116Z,61.10
2023-01-19T12:18:29.282Z,62.82
2023-01-19T12:19:29.454Z,62.70
2023-01-19T20:44:59.567Z,57.68
2023-01-19T20:45:59.603Z,57.47
2023-01-19T20:46:58.920Z,57.61
2023-01-19T20:47:58.798Z,59.12
2023-01-19T20:48:58.701Z,59.16
2023-01-19T20:50:30.954Z,57.99
2023-01-19T20:51:00.842Z,57.20
2023-01-19T20:58:09.118Z,55.21
2023-01-19T20:59:32.602Z,53.71
2023-01-19T21:00:09.238Z,54.80
2023-01-19T21:05:33.657Z,56.29
2023-01-19T21:09:54.299Z,58.31
2023-01-19T21:10:22.297Z,61.63
2023-01-19T21:34:01.363Z,58.42
2023-01-19T21:34:35.387Z,59.63
2023-01-19T21:35:34.429Z,58.95
2023-01-19T21:36:34.251Z,56.65
2023-01-19T21:37:34.602Z,58.58
2023-01-19T21:38:34.072Z,59.34
2023-01-19T21:39:33.937Z,63.22
2023-01-19T21:40:34.217Z,58.71
2023-01-19T21:41:33.979Z,58.70
2023-01-19T21:42:34.038Z,58.65
2023-01-19T21:43:34.006Z,59.50
2023-01-19T21:44:34.019Z,56.91
2023-01-19T21:45:34.588Z,56.61
2023-01-19T21:46:33.885Z,59.05
2023-01-19T21:47:33.921Z,59.82
2023-01-19T21:48:34.045Z,59.15
2023-01-19T21:49:33.815Z,58.00
2023-01-19T21:50:34.118Z,57.22
2023-01-19T21:51:33.856Z,56.98
2023-01-19T21:52:34.054Z,59.30
2023-01-19T21:53:33.837Z,60.28
2023-01-19T21:54:34.185Z,60.88
2023-01-19T21:55:34.115Z,58.95
2023-01-19T21:56:34.010Z,57.64
2023-01-19T21:57:33.965Z,61.47
2023-01-19T21:58:33.951Z,60.90
2023-01-19T21:59:33.625Z,62.17
2023-01-19T22:00:33.694Z,59.24
2023-01-19T22:01:33.931Z,59.59
2023-01-19T22:02:38.974Z,60.83
2023-01-19T22:03:35.970Z,60.41
2023-01-19T22:04:33.980Z,60.68
2023-01-19T22:05:36.210Z,59.46
2023-01-19T22:06:33.754Z,59.77
2023-01-19T22:07:33.712Z,58.87
2023-01-19T22:08:33.685Z,59.26
2023-01-19T22:09:33.637Z,55.98
2023-01-19T22:10:33.748Z,59.16
2023-01-19T22:11:33.635Z,58.85
2023-01-19T22:12:34.246Z,57.94
2023-01-19T22:13:33.703Z,61.53
2023-01-19T22:14:33.998Z,60.30
2023-01-19T22:15:33.866Z,58.26
2023-01-19T22:16:34.258Z,59.53
2023-01-19T22:17:34.004Z,60.49
2023-01-19T22:18:35.997Z,59.02
2023-01-19T22:22:35.284Z,57.71
2023-01-19T22:23:35.235Z,60.37
2023-01-19T22:24:33.723Z,61.33
2023-01-19T22:26:06.716Z,58.33
2023-01-19T22:26:34.787Z,56.23
2023-01-19T22:27:33.860Z,57.37
2023-01-19T22:28:33.749Z,57.32
2023-01-19T22:32:33.777Z,56.41
2023-01-19T22:33:32.405Z,59.94
2023-01-19T22:34:32.432Z,59.25
2023-01-19T22:35:32.400Z,58.36
2023-01-19T22:36:32.380Z,58.13
2023-01-19T22:37:32.428Z,59.05
2023-01-19T22:39:05.805Z,56.92
2023-01-19T22:39:33.289Z,56.30
2023-01-19T22:40:32.269Z,57.76
2023-01-19T22:41:32.168Z,57.40
2023-01-19T22:42:32.276Z,56.12
2023-01-19T22:43:32.178Z,57.12
2023-01-19T22:44:32.032Z,57.96
2023-01-19T22:45:32.329Z,56.28
2023-01-19T22:46:32.564Z,57.86
2023-01-19T22:47:32.064Z,58.48
2023-01-19T22:48:32.315Z,58.28
2023-01-19T22:49:32.323Z,56.22
2023-01-19T22:50:32.743Z,59.36
2023-01-19T22:51:32.297Z,57.96
2023-01-19T22:55:32.392Z,59.43
2023-01-19T22:56:31.236Z,59.59
2023-01-19T22:57:31.246Z,55.76
2023-01-19T22:59:05.377Z,58.44
2023-01-19T22:59:33.159Z,56.30
2023-01-19T23:00:31.228Z,57.68
2023-01-19T23:01:31.211Z,56.46
2023-01-19T23:02:32.141Z,56.84
2023-01-19T23:03:31.049Z,56.94
2023-01-19T23:04:31.603Z,58.31
2023-01-19T23:05:31.489Z,55.95
2023-01-19T23:06:31.378Z,58.71
2023-01-19T23:07:30.954Z,56.40
2023-01-19T23:08:30.880Z,57.88
2023-01-19T23:09:30.813Z,57.88
2023-01-19T23:10:30.774Z,56.57
2023-01-19T23:11:30.973Z,56.07
2023-01-19T23:12:30.992Z,58.67
2023-01-19T23:13:31.061Z,60.53
2023-01-19T23:15:04.201Z,59.25
2023-01-19T23:15:32.253Z,61.33
2023-01-19T23:16:31.319Z,57.87
2023-01-19T23:17:30.849Z,59.24
2023-01-19T23:18:31.251Z,61.05
2023-01-19T23:19:31.069Z,58.79
2023-01-19T23:20:30.907Z,57.52
2023-01-19T23:21:31.111Z,55.70
2023-01-19T23:22:31.345Z,55.38
2023-01-19T23:26:34.061Z,56.69
2023-01-19T23:27:30.781Z,55.49
2023-01-19T23:28:30.618Z,56.78
2023-01-19T23:29:30.644Z,59.20
2023-01-19T23:30:30.702Z,58.52
2023-01-19T23:31:30.542Z,56.55
2023-01-19T23:32:30.914Z,56.48
2023-01-19T23:33:30.820Z,57.21
2023-01-19T23:34:31.003Z,57.40
2023-01-19T23:36:05.946Z,56.08
2023-01-19T23:36:31.506Z,60.21
2023-01-19T23:38:03.109Z,56.61
2023-01-19T23:38:31.687Z,55.64
2023-01-19T23:39:31.253Z,56.53
2023-01-19T23:40:30.573Z,57.61
2023-01-19T23:41:30.483Z,56.76
2023-01-19T23:42:30.476Z,56.19
2023-01-19T23:46:31.324Z,57.30
2023-01-19T23:47:30.542Z,58.79
2023-01-19T23:48:30.262Z,58.43
2023-01-19T23:49:30.295Z,60.89
2023-01-19T23:50:30.150Z,58.89
2023-01-19T23:51:30.001Z,59.42
2023-01-19T23:52:30.689Z,58.51
2023-01-19T23:53:30.101Z,58.02
2023-01-19T23:54:30.041Z,57.79
2023-01-19T23:55:29.988Z,58.59
2023-01-19T23:56:30.220Z,57.99
2023-01-19T23:57:30.278Z,59.31
2023-01-19T23:58:30.172Z,57.44
2023-01-19T23:59:30.172Z,57.75
